sensor_id;sensor_type;location;lat;lon;timestamp;P1;durP1;ratioP1;P2;durP2;ratioP2
78838;SDS011;68405;47.190;27.558;2023-09-18T00:00:55;6.30;;;3.90;;
78838;SDS011;68405;47.190;27.558;2023-09-18T00:03:39;8.10;;;4.10;;
78838;SDS011;68405;47.190;27.558;2023-09-18T00:06:09;4.90;;;3.80;;
78838;SDS011;68405;47.190;27.558;2023-09-18T00:08:39;5.00;;;3.90;;
78838;SDS011;68405;47.190;27.558;2023-09-18T00:11:08;7.70;;;4.50;;
78838;SDS011;68405;47.190;27.558;2023-09-18T00:13:37;6.10;;;3.80;;
78838;SDS011;68405;47.190;27.558;2023-09-18T00:16:05;8.80;;;4.80;;
78838;SDS011;68405;47.190;27.558;2023-09-18T00:18:34;5.60;;;3.60;;
78838;SDS011;68405;47.190;27.558;2023-09-18T00:21:03;5.50;;;4.30;;
78838;SDS011;68405;47.190;27.558;2023-09-18T00:23:33;5.90;;;3.90;;
78838;SDS011;68405;47.190;27.558;2023-09-18T00:26:02;6.60;;;3.50;;
78838;SDS011;68405;47.190;27.558;2023-09-18T00:28:31;5.40;;;4.00;;
78838;SDS011;68405;47.190;27.558;2023-09-18T00:30:59;6.90;;;4.10;;
78838;SDS011;68405;47.190;27.558;2023-09-18T00:33:28;5.30;;;4.10;;
78838;SDS011;68405;47.190;27.558;2023-09-18T00:35:57;5.40;;;3.40;;
78838;SDS011;68405;47.190;27.558;2023-09-18T00:38:26;5.20;;;3.70;;
78838;SDS011;68405;47.190;27.558;2023-09-18T00:40:54;4.20;;;3.80;;
78838;SDS011;68405;47.190;27.558;2023-09-18T00:43:23;6.30;;;4.00;;
78838;SDS011;68405;47.190;27.558;2023-09-18T00:45:52;6.20;;;4.00;;
78838;SDS011;68405;47.190;27.558;2023-09-18T00:48:20;5.00;;;3.90;;
78838;SDS011;68405;47.190;27.558;2023-09-18T00:50:49;5.40;;;4.00;;
78838;SDS011;68405;47.190;27.558;2023-09-18T00:53:19;5.80;;;3.80;;
78838;SDS011;68405;47.190;27.558;2023-09-18T00:55:51;4.70;;;4.00;;
78838;SDS011;68405;47.190;27.558;2023-09-18T00:58:23;4.40;;;3.70;;
78838;SDS011;68405;47.190;27.558;2023-09-18T01:00:52;4.80;;;3.40;;
78838;SDS011;68405;47.190;27.558;2023-09-18T01:03:21;6.30;;;3.80;;
78838;SDS011;68405;47.190;27.558;2023-09-18T01:05:53;5.30;;;3.60;;
78838;SDS011;68405;47.190;27.558;2023-09-18T01:08:22;6.50;;;3.90;;
78838;SDS011;68405;47.190;27.558;2023-09-18T01:10:56;6.10;;;4.00;;
78838;SDS011;68405;47.190;27.558;2023-09-18T01:13:36;5.60;;;4.10;;
78838;SDS011;68405;47.190;27.558;2023-09-18T01:16:14;6.20;;;3.70;;
78838;SDS011;68405;47.190;27.558;2023-09-18T01:18:51;4.90;;;3.80;;
78838;SDS011;68405;47.190;27.558;2023-09-18T01:21:20;5.30;;;3.80;;
78838;SDS011;68405;47.190;27.558;2023-09-18T01:23:49;7.60;;;4.60;;
78838;SDS011;68405;47.190;27.558;2023-09-18T01:26:18;5.10;;;3.70;;
78838;SDS011;68405;47.190;27.558;2023-09-18T01:28:47;6.40;;;4.40;;
78838;SDS011;68405;47.190;27.558;2023-09-18T01:31:16;5.80;;;3.90;;
78838;SDS011;68405;47.190;27.558;2023-09-18T01:33:45;5.90;;;5.10;;
78838;SDS011;68405;47.190;27.558;2023-09-18T01:36:16;6.10;;;4.20;;
78838;SDS011;68405;47.190;27.558;2023-09-18T01:38:46;5.60;;;3.80;;
78838;SDS011;68405;47.190;27.558;2023-09-18T01:41:17;4.90;;;4.30;;
78838;SDS011;68405;47.190;27.558;2023-09-18T01:43:46;6.70;;;3.80;;
78838;SDS011;68405;47.190;27.558;2023-09-18T01:46:15;5.40;;;4.20;;
78838;SDS011;68405;47.190;27.558;2023-09-18T01:48:46;6.30;;;3.70;;
78838;SDS011;68405;47.190;27.558;2023-09-18T01:51:15;4.40;;;3.70;;
78838;SDS011;68405;47.190;27.558;2023-09-18T01:53:44;5.70;;;3.90;;
78838;SDS011;68405;47.190;27.558;2023-09-18T01:56:13;4.70;;;3.10;;
78838;SDS011;68405;47.190;27.558;2023-09-18T01:58:42;7.40;;;3.60;;
78838;SDS011;68405;47.190;27.558;2023-09-18T02:01:10;5.60;;;4.80;;
78838;SDS011;68405;47.190;27.558;2023-09-18T03:02:12;6.90;;;4.20;;
78838;SDS011;68405;47.190;27.558;2023-09-18T03:04:41;3.90;;;2.80;;
78838;SDS011;68405;47.190;27.558;2023-09-18T03:07:10;6.50;;;4.30;;
78838;SDS011;68405;47.190;27.558;2023-09-18T03:09:41;5.30;;;4.00;;
78838;SDS011;68405;47.190;27.558;2023-09-18T03:12:10;6.10;;;3.90;;
78838;SDS011;68405;47.190;27.558;2023-09-18T03:14:38;5.30;;;4.00;;
78838;SDS011;68405;47.190;27.558;2023-09-18T03:17:07;4.60;;;3.70;;
78838;SDS011;68405;47.190;27.558;2023-09-18T03:19:37;6.70;;;3.80;;
78838;SDS011;68405;47.190;27.558;2023-09-18T03:22:06;6.00;;;5.10;;
78838;SDS011;68405;47.190;27.558;2023-09-18T03:24:34;7.40;;;4.30;;
78838;SDS011;68405;47.190;27.558;2023-09-18T03:27:03;5.90;;;4.30;;
78838;SDS011;68405;47.190;27.558;2023-09-18T03:29:32;8.00;;;3.60;;
78838;SDS011;68405;47.190;27.558;2023-09-18T03:32:01;7.50;;;4.20;;
78838;SDS011;68405;47.190;27.558;2023-09-18T03:34:30;14.10;;;5.30;;
78838;SDS011;68405;47.190;27.558;2023-09-18T03:36:58;9.60;;;4.80;;
78838;SDS011;68405;47.190;27.558;2023-09-18T03:39:27;7.40;;;4.10;;
78838;SDS011;68405;47.190;27.558;2023-09-18T03:41:56;7.80;;;3.90;;
78838;SDS011;68405;47.190;27.558;2023-09-18T03:44:25;10.70;;;5.00;;
78838;SDS011;68405;47.190;27.558;2023-09-18T03:46:53;8.60;;;4.60;;
78838;SDS011;68405;47.190;27.558;2023-09-18T03:49:22;8.70;;;4.70;;
78838;SDS011;68405;47.190;27.558;2023-09-18T03:51:51;9.60;;;4.60;;
78838;SDS011;68405;47.190;27.558;2023-09-18T03:54:19;10.40;;;4.20;;
78838;SDS011;68405;47.190;27.558;2023-09-18T03:56:48;7.10;;;4.50;;
78838;SDS011;68405;47.190;27.558;2023-09-18T03:59:17;6.40;;;4.80;;
78838;SDS011;68405;47.190;27.558;2023-09-18T04:01:46;11.10;;;4.90;;
78838;SDS011;68405;47.190;27.558;2023-09-18T04:04:15;6.20;;;4.80;;
78838;SDS011;68405;47.190;27.558;2023-09-18T04:06:44;8.20;;;5.10;;
78838;SDS011;68405;47.190;27.558;2023-09-18T04:09:13;7.00;;;4.50;;
78838;SDS011;68405;47.190;27.558;2023-09-18T04:11:42;8.30;;;4.10;;
78838;SDS011;68405;47.190;27.558;2023-09-18T04:14:11;7.50;;;4.30;;
78838;SDS011;68405;47.190;27.558;2023-09-18T04:16:41;8.30;;;5.20;;
78838;SDS011;68405;47.190;27.558;2023-09-18T04:19:11;10.10;;;5.20;;
78838;SDS011;68405;47.190;27.558;2023-09-18T04:21:40;6.00;;;4.90;;
78838;SDS011;68405;47.190;27.558;2023-09-18T04:24:09;5.70;;;3.70;;
78838;SDS011;68405;47.190;27.558;2023-09-18T04:26:38;6.30;;;4.40;;
78838;SDS011;68405;47.190;27.558;2023-09-18T04:29:07;6.00;;;4.10;;
78838;SDS011;68405;47.190;27.558;2023-09-18T04:31:36;7.40;;;5.30;;
78838;SDS011;68405;47.190;27.558;2023-09-18T04:34:05;6.80;;;4.10;;
78838;SDS011;68405;47.190;27.558;2023-09-18T04:36:34;8.10;;;4.30;;
78838;SDS011;68405;47.190;27.558;2023-09-18T04:39:04;5.40;;;4.40;;
78838;SDS011;68405;47.190;27.558;2023-09-18T04:41:33;6.50;;;4.30;;
78838;SDS011;68405;47.190;27.558;2023-09-18T04:44:03;6.10;;;4.00;;
78838;SDS011;68405;47.190;27.558;2023-09-18T04:46:32;7.70;;;4.50;;
78838;SDS011;68405;47.190;27.558;2023-09-18T04:49:02;6.70;;;4.40;;
78838;SDS011;68405;47.190;27.558;2023-09-18T04:51:31;6.60;;;4.40;;
78838;SDS011;68405;47.190;27.558;2023-09-18T04:54:00;5.80;;;3.60;;
78838;SDS011;68405;47.190;27.558;2023-09-18T04:56:31;5.00;;;3.70;;
78838;SDS011;68405;47.190;27.558;2023-09-18T04:59:00;3.90;;;3.50;;
78838;SDS011;68405;47.190;27.558;2023-09-18T05:01:30;5.40;;;4.10;;
78838;SDS011;68405;47.190;27.558;2023-09-18T05:03:59;5.50;;;3.20;;
78838;SDS011;68405;47.190;27.558;2023-09-18T05:06:28;5.30;;;3.50;;
78838;SDS011;68405;47.190;27.558;2023-09-18T05:08:56;5.00;;;3.70;;
78838;SDS011;68405;47.190;27.558;2023-09-18T05:11:25;7.60;;;3.90;;
78838;SDS011;68405;47.190;27.558;2023-09-18T05:13:54;5.40;;;3.20;;
78838;SDS011;68405;47.190;27.558;2023-09-18T05:16:22;7.00;;;3.10;;
78838;SDS011;68405;47.190;27.558;2023-09-18T05:18:51;6.50;;;3.40;;
78838;SDS011;68405;47.190;27.558;2023-09-18T05:21:20;4.90;;;3.30;;
78838;SDS011;68405;47.190;27.558;2023-09-18T05:23:52;4.40;;;3.30;;
78838;SDS011;68405;47.190;27.558;2023-09-18T05:26:20;7.40;;;3.40;;
78838;SDS011;68405;47.190;27.558;2023-09-18T05:28:51;4.50;;;3.10;;
78838;SDS011;68405;47.190;27.558;2023-09-18T05:31:21;5.60;;;3.40;;
78838;SDS011;68405;47.190;27.558;2023-09-18T05:33:51;5.40;;;3.40;;
78838;SDS011;68405;47.190;27.558;2023-09-18T05:36:20;6.40;;;3.60;;
78838;SDS011;68405;47.190;27.558;2023-09-18T05:38:49;5.00;;;3.10;;
78838;SDS011;68405;47.190;27.558;2023-09-18T05:41:17;4.20;;;2.90;;
78838;SDS011;68405;47.190;27.558;2023-09-18T05:43:46;4.50;;;3.10;;
78838;SDS011;68405;47.190;27.558;2023-09-18T05:46:15;7.90;;;3.20;;
78838;SDS011;68405;47.190;27.558;2023-09-18T05:48:43;5.90;;;3.10;;
78838;SDS011;68405;47.190;27.558;2023-09-18T05:51:12;6.30;;;3.10;;
78838;SDS011;68405;47.190;27.558;2023-09-18T05:53:41;6.80;;;4.90;;
78838;SDS011;68405;47.190;27.558;2023-09-18T05:56:10;5.90;;;3.10;;
78838;SDS011;68405;47.190;27.558;2023-09-18T05:58:39;3.60;;;2.90;;
78838;SDS011;68405;47.190;27.558;2023-09-18T06:01:08;6.40;;;3.20;;
78838;SDS011;68405;47.190;27.558;2023-09-18T06:03:37;6.30;;;3.10;;
78838;SDS011;68405;47.190;27.558;2023-09-18T06:06:06;5.20;;;3.20;;
78838;SDS011;68405;47.190;27.558;2023-09-18T06:08:35;5.00;;;3.20;;
78838;SDS011;68405;47.190;27.558;2023-09-18T06:11:04;6.80;;;3.00;;
78838;SDS011;68405;47.190;27.558;2023-09-18T06:13:33;4.80;;;3.00;;
78838;SDS011;68405;47.190;27.558;2023-09-18T06:16:01;4.70;;;3.30;;
78838;SDS011;68405;47.190;27.558;2023-09-18T06:18:34;6.00;;;2.80;;
78838;SDS011;68405;47.190;27.558;2023-09-18T06:21:05;6.60;;;3.10;;
78838;SDS011;68405;47.190;27.558;2023-09-18T06:23:34;4.10;;;3.50;;
78838;SDS011;68405;47.190;27.558;2023-09-18T06:26:02;6.50;;;3.40;;
78838;SDS011;68405;47.190;27.558;2023-09-18T06:28:31;8.40;;;3.80;;
78838;SDS011;68405;47.190;27.558;2023-09-18T06:31:00;6.40;;;3.50;;
78838;SDS011;68405;47.190;27.558;2023-09-18T06:33:29;4.40;;;3.20;;
78838;SDS011;68405;47.190;27.558;2023-09-18T06:35:58;4.00;;;3.10;;
78838;SDS011;68405;47.190;27.558;2023-09-18T06:38:27;7.70;;;3.40;;
78838;SDS011;68405;47.190;27.558;2023-09-18T06:40:56;6.70;;;3.50;;
78838;SDS011;68405;47.190;27.558;2023-09-18T06:43:24;3.40;;;3.10;;
78838;SDS011;68405;47.190;27.558;2023-09-18T06:45:53;4.30;;;3.40;;
78838;SDS011;68405;47.190;27.558;2023-09-18T06:48:25;5.20;;;3.30;;
78838;SDS011;68405;47.190;27.558;2023-09-18T06:51:00;4.30;;;3.20;;
78838;SDS011;68405;47.190;27.558;2023-09-18T06:53:29;4.60;;;3.00;;
78838;SDS011;68405;47.190;27.558;2023-09-18T06:55:57;5.40;;;3.30;;
78838;SDS011;68405;47.190;27.558;2023-09-18T06:58:26;5.80;;;3.40;;
78838;SDS011;68405;47.190;27.558;2023-09-18T07:00:55;5.00;;;3.70;;
78838;SDS011;68405;47.190;27.558;2023-09-18T07:03:25;4.30;;;3.20;;
78838;SDS011;68405;47.190;27.558;2023-09-18T07:05:54;7.70;;;3.10;;
78838;SDS011;68405;47.190;27.558;2023-09-18T07:08:23;6.30;;;3.40;;
78838;SDS011;68405;47.190;27.558;2023-09-18T07:10:52;3.20;;;2.90;;
78838;SDS011;68405;47.190;27.558;2023-09-18T07:13:21;4.70;;;3.10;;
78838;SDS011;68405;47.190;27.558;2023-09-18T07:15:49;3.40;;;2.80;;
78838;SDS011;68405;47.190;27.558;2023-09-18T07:18:18;3.20;;;2.90;;
78838;SDS011;68405;47.190;27.558;2023-09-18T07:20:47;4.40;;;2.80;;
78838;SDS011;68405;47.190;27.558;2023-09-18T07:23:16;6.60;;;2.80;;
78838;SDS011;68405;47.190;27.558;2023-09-18T07:25:45;5.00;;;3.20;;
78838;SDS011;68405;47.190;27.558;2023-09-18T07:28:15;5.30;;;3.10;;
78838;SDS011;68405;47.190;27.558;2023-09-18T07:30:46;6.30;;;3.10;;
78838;SDS011;68405;47.190;27.558;2023-09-18T07:33:15;3.90;;;3.00;;
78838;SDS011;68405;47.190;27.558;2023-09-18T07:35:46;3.90;;;3.10;;
78838;SDS011;68405;47.190;27.558;2023-09-18T07:38:16;3.40;;;3.10;;
78838;SDS011;68405;47.190;27.558;2023-09-18T07:40:46;3.80;;;3.00;;
78838;SDS011;68405;47.190;27.558;2023-09-18T07:43:15;3.70;;;3.20;;
78838;SDS011;68405;47.190;27.558;2023-09-18T07:45:44;3.60;;;3.00;;
78838;SDS011;68405;47.190;27.558;2023-09-18T07:48:12;3.40;;;3.10;;
78838;SDS011;68405;47.190;27.558;2023-09-18T07:50:44;3.80;;;3.30;;
78838;SDS011;68405;47.190;27.558;2023-09-18T07:53:16;3.50;;;3.10;;
78838;SDS011;68405;47.190;27.558;2023-09-18T07:55:44;4.30;;;3.10;;
78838;SDS011;68405;47.190;27.558;2023-09-18T07:58:14;3.90;;;3.50;;
78838;SDS011;68405;47.190;27.558;2023-09-18T08:00:43;3.70;;;3.40;;
78838;SDS011;68405;47.190;27.558;2023-09-18T08:03:12;3.70;;;3.40;;
78838;SDS011;68405;47.190;27.558;2023-09-18T08:05:41;3.10;;;2.80;;
78838;SDS011;68405;47.190;27.558;2023-09-18T08:08:11;3.90;;;3.30;;
78838;SDS011;68405;47.190;27.558;2023-09-18T08:10:40;3.70;;;3.30;;
78838;SDS011;68405;47.190;27.558;2023-09-18T08:13:09;3.50;;;3.20;;
78838;SDS011;68405;47.190;27.558;2023-09-18T08:15:38;3.90;;;3.10;;
78838;SDS011;68405;47.190;27.558;2023-09-18T08:18:07;3.40;;;3.10;;
78838;SDS011;68405;47.190;27.558;2023-09-18T08:20:35;3.50;;;3.20;;
78838;SDS011;68405;47.190;27.558;2023-09-18T08:23:07;5.00;;;3.40;;
78838;SDS011;68405;47.190;27.558;2023-09-18T08:25:36;5.00;;;3.80;;
78838;SDS011;68405;47.190;27.558;2023-09-18T08:28:07;3.80;;;3.40;;
78838;SDS011;68405;47.190;27.558;2023-09-18T08:30:35;4.10;;;3.50;;
78838;SDS011;68405;47.190;27.558;2023-09-18T08:33:07;3.60;;;3.20;;
78838;SDS011;68405;47.190;27.558;2023-09-18T08:35:36;3.90;;;3.30;;
78838;SDS011;68405;47.190;27.558;2023-09-18T08:38:06;5.40;;;3.30;;
78838;SDS011;68405;47.190;27.558;2023-09-18T08:40:35;4.50;;;3.50;;
78838;SDS011;68405;47.190;27.558;2023-09-18T08:43:04;4.10;;;3.40;;
78838;SDS011;68405;47.190;27.558;2023-09-18T08:45:35;3.80;;;3.50;;
78838;SDS011;68405;47.190;27.558;2023-09-18T08:48:06;5.10;;;3.20;;
78838;SDS011;68405;47.190;27.558;2023-09-18T08:50:36;3.30;;;3.00;;
78838;SDS011;68405;47.190;27.558;2023-09-18T08:53:05;3.70;;;3.20;;
78838;SDS011;68405;47.190;27.558;2023-09-18T08:55:35;5.70;;;3.30;;
78838;SDS011;68405;47.190;27.558;2023-09-18T08:58:05;4.50;;;3.60;;
78838;SDS011;68405;47.190;27.558;2023-09-18T09:00:35;6.70;;;3.60;;
78838;SDS011;68405;47.190;27.558;2023-09-18T09:03:05;3.60;;;3.20;;
78838;SDS011;68405;47.190;27.558;2023-09-18T09:05:35;4.70;;;3.30;;
78838;SDS011;68405;47.190;27.558;2023-09-18T09:08:04;4.70;;;3.70;;
78838;SDS011;68405;47.190;27.558;2023-09-18T09:10:33;5.60;;;4.10;;
78838;SDS011;68405;47.190;27.558;2023-09-18T09:13:03;3.30;;;3.00;;
78838;SDS011;68405;47.190;27.558;2023-09-18T09:15:34;3.80;;;3.50;;
78838;SDS011;68405;47.190;27.558;2023-09-18T09:18:13;6.50;;;3.20;;
78838;SDS011;68405;47.190;27.558;2023-09-18T09:20:43;4.00;;;3.00;;
78838;SDS011;68405;47.190;27.558;2023-09-18T09:23:25;4.70;;;3.60;;
78838;SDS011;68405;47.190;27.558;2023-09-18T09:26:11;4.10;;;3.40;;
78838;SDS011;68405;47.190;27.558;2023-09-18T09:28:42;3.90;;;3.50;;
78838;SDS011;68405;47.190;27.558;2023-09-18T09:31:12;4.30;;;3.50;;
78838;SDS011;68405;47.190;27.558;2023-09-18T09:33:53;3.80;;;3.10;;
78838;SDS011;68405;47.190;27.558;2023-09-18T09:36:22;4.20;;;3.70;;
78838;SDS011;68405;47.190;27.558;2023-09-18T09:38:55;4.50;;;3.70;;
78838;SDS011;68405;47.190;27.558;2023-09-18T09:41:25;4.00;;;3.60;;
78838;SDS011;68405;47.190;27.558;2023-09-18T09:43:55;6.40;;;4.20;;
78838;SDS011;68405;47.190;27.558;2023-09-18T09:46:25;4.40;;;3.30;;
78838;SDS011;68405;47.190;27.558;2023-09-18T09:49:01;5.30;;;3.60;;
78838;SDS011;68405;47.190;27.558;2023-09-18T09:51:31;5.30;;;3.80;;
78838;SDS011;68405;47.190;27.558;2023-09-18T09:54:01;9.60;;;3.80;;
78838;SDS011;68405;47.190;27.558;2023-09-18T09:56:43;6.50;;;3.40;;
78838;SDS011;68405;47.190;27.558;2023-09-18T09:59:15;5.20;;;3.80;;
78838;SDS011;68405;47.190;27.558;2023-09-18T10:01:46;7.20;;;3.30;;
78838;SDS011;68405;47.190;27.558;2023-09-18T10:04:16;4.10;;;3.20;;
78838;SDS011;68405;47.190;27.558;2023-09-18T10:06:49;5.20;;;3.30;;
78838;SDS011;68405;47.190;27.558;2023-09-18T10:09:20;3.40;;;3.10;;
78838;SDS011;68405;47.190;27.558;2023-09-18T10:11:51;3.40;;;2.80;;
78838;SDS011;68405;47.190;27.558;2023-09-18T10:14:25;5.30;;;3.40;;
78838;SDS011;68405;47.190;27.558;2023-09-18T10:17:02;4.70;;;3.20;;
78838;SDS011;68405;47.190;27.558;2023-09-18T10:19:40;3.60;;;3.20;;
78838;SDS011;68405;47.190;27.558;2023-09-18T10:22:26;5.30;;;3.60;;
78838;SDS011;68405;47.190;27.558;2023-09-18T10:25:07;5.80;;;3.20;;
78838;SDS011;68405;47.190;27.558;2023-09-18T10:27:40;7.90;;;3.40;;
78838;SDS011;68405;47.190;27.558;2023-09-18T10:30:13;3.50;;;3.20;;
78838;SDS011;68405;47.190;27.558;2023-09-18T10:32:45;6.20;;;3.20;;
78838;SDS011;68405;47.190;27.558;2023-09-18T10:35:15;4.90;;;3.40;;
78838;SDS011;68405;47.190;27.558;2023-09-18T10:37:47;3.90;;;3.50;;
78838;SDS011;68405;47.190;27.558;2023-09-18T10:40:18;5.30;;;3.40;;
78838;SDS011;68405;47.190;27.558;2023-09-18T10:42:48;5.30;;;3.80;;
78838;SDS011;68405;47.190;27.558;2023-09-18T10:45:19;4.90;;;3.80;;
78838;SDS011;68405;47.190;27.558;2023-09-18T10:47:49;4.80;;;3.20;;
78838;SDS011;68405;47.190;27.558;2023-09-18T10:50:23;5.80;;;3.90;;
78838;SDS011;68405;47.190;27.558;2023-09-18T10:52:53;4.10;;;3.50;;
78838;SDS011;68405;47.190;27.558;2023-09-18T10:55:25;5.40;;;3.50;;
78838;SDS011;68405;47.190;27.558;2023-09-18T10:57:54;5.30;;;3.60;;
78838;SDS011;68405;47.190;27.558;2023-09-18T11:00:25;5.00;;;3.80;;
78838;SDS011;68405;47.190;27.558;2023-09-18T11:03:09;4.00;;;3.60;;
78838;SDS011;68405;47.190;27.558;2023-09-18T11:05:41;7.10;;;3.60;;
78838;SDS011;68405;47.190;27.558;2023-09-18T11:08:24;5.20;;;3.70;;
78838;SDS011;68405;47.190;27.558;2023-09-18T11:11:02;4.90;;;3.40;;
78838;SDS011;68405;47.190;27.558;2023-09-18T11:13:37;4.30;;;3.40;;
78838;SDS011;68405;47.190;27.558;2023-09-18T11:16:15;5.60;;;4.10;;
78838;SDS011;68405;47.190;27.558;2023-09-18T11:18:47;5.00;;;3.50;;
78838;SDS011;68405;47.190;27.558;2023-09-18T11:21:23;6.40;;;3.20;;
78838;SDS011;68405;47.190;27.558;2023-09-18T11:24:00;5.60;;;3.70;;
78838;SDS011;68405;47.190;27.558;2023-09-18T11:26:30;4.00;;;3.50;;
78838;SDS011;68405;47.190;27.558;2023-09-18T11:29:01;5.30;;;3.70;;
78838;SDS011;68405;47.190;27.558;2023-09-18T11:31:43;4.50;;;3.70;;
78838;SDS011;68405;47.190;27.558;2023-09-18T11:34:21;5.30;;;3.10;;
78838;SDS011;68405;47.190;27.558;2023-09-18T11:36:53;6.10;;;3.70;;
78838;SDS011;68405;47.190;27.558;2023-09-18T11:39:36;5.00;;;3.90;;
78838;SDS011;68405;47.190;27.558;2023-09-18T11:42:10;7.50;;;3.60;;
78838;SDS011;68405;47.190;27.558;2023-09-18T11:44:40;6.80;;;3.60;;
78838;SDS011;68405;47.190;27.558;2023-09-18T11:47:14;4.20;;;3.80;;
78838;SDS011;68405;47.190;27.558;2023-09-18T11:49:47;4.20;;;3.20;;
78838;SDS011;68405;47.190;27.558;2023-09-18T11:52:20;4.90;;;3.50;;
78838;SDS011;68405;47.190;27.558;2023-09-18T11:54:50;8.20;;;4.10;;
78838;SDS011;68405;47.190;27.558;2023-09-18T11:57:21;5.90;;;3.50;;
78838;SDS011;68405;47.190;27.558;2023-09-18T11:59:51;6.40;;;3.60;;
78838;SDS011;68405;47.190;27.558;2023-09-18T12:02:26;6.70;;;4.00;;
78838;SDS011;68405;47.190;27.558;2023-09-18T12:05:09;4.80;;;3.90;;
78838;SDS011;68405;47.190;27.558;2023-09-18T12:07:43;7.60;;;3.70;;
78838;SDS011;68405;47.190;27.558;2023-09-18T12:10:13;6.80;;;4.10;;
78838;SDS011;68405;47.190;27.558;2023-09-18T12:12:44;3.90;;;3.50;;
78838;SDS011;68405;47.190;27.558;2023-09-18T12:15:16;6.30;;;3.50;;
78838;SDS011;68405;47.190;27.558;2023-09-18T12:17:46;5.70;;;4.10;;
78838;SDS011;68405;47.190;27.558;2023-09-18T12:20:16;5.80;;;3.90;;
78838;SDS011;68405;47.190;27.558;2023-09-18T12:22:47;5.40;;;3.40;;
78838;SDS011;68405;47.190;27.558;2023-09-18T12:25:18;8.40;;;4.80;;
78838;SDS011;68405;47.190;27.558;2023-09-18T12:27:52;5.30;;;4.10;;
78838;SDS011;68405;47.190;27.558;2023-09-18T12:30:22;7.60;;;3.80;;
78838;SDS011;68405;47.190;27.558;2023-09-18T12:32:52;6.10;;;4.30;;
78838;SDS011;68405;47.190;27.558;2023-09-18T12:35:24;5.60;;;4.30;;
78838;SDS011;68405;47.190;27.558;2023-09-18T12:37:56;6.80;;;4.40;;
78838;SDS011;68405;47.190;27.558;2023-09-18T12:40:27;4.80;;;4.00;;
78838;SDS011;68405;47.190;27.558;2023-09-18T12:42:59;5.80;;;3.60;;
78838;SDS011;68405;47.190;27.558;2023-09-18T12:45:28;5.50;;;3.70;;
78838;SDS011;68405;47.190;27.558;2023-09-18T12:47:58;5.10;;;4.00;;
78838;SDS011;68405;47.190;27.558;2023-09-18T12:50:27;5.70;;;3.80;;
78838;SDS011;68405;47.190;27.558;2023-09-18T12:53:07;5.10;;;3.50;;
78838;SDS011;68405;47.190;27.558;2023-09-18T12:55:37;7.90;;;4.10;;
78838;SDS011;68405;47.190;27.558;2023-09-18T12:58:09;5.30;;;4.10;;
78838;SDS011;68405;47.190;27.558;2023-09-18T13:00:45;6.60;;;4.10;;
78838;SDS011;68405;47.190;27.558;2023-09-18T13:03:16;4.60;;;3.80;;
78838;SDS011;68405;47.190;27.558;2023-09-18T13:05:45;5.30;;;4.10;;
78838;SDS011;68405;47.190;27.558;2023-09-18T13:08:16;6.20;;;3.70;;
78838;SDS011;68405;47.190;27.558;2023-09-18T13:10:51;6.00;;;3.70;;
78838;SDS011;68405;47.190;27.558;2023-09-18T13:13:20;6.20;;;4.10;;
78838;SDS011;68405;47.190;27.558;2023-09-18T13:15:50;7.60;;;4.30;;
78838;SDS011;68405;47.190;27.558;2023-09-18T13:18:19;5.40;;;4.30;;
78838;SDS011;68405;47.190;27.558;2023-09-18T13:20:47;5.20;;;4.30;;
78838;SDS011;68405;47.190;27.558;2023-09-18T13:23:18;9.60;;;4.10;;
78838;SDS011;68405;47.190;27.558;2023-09-18T13:25:47;7.40;;;4.80;;
78838;SDS011;68405;47.190;27.558;2023-09-18T13:28:16;6.10;;;4.30;;
78838;SDS011;68405;47.190;27.558;2023-09-18T13:30:47;7.10;;;4.60;;
78838;SDS011;68405;47.190;27.558;2023-09-18T13:33:18;6.10;;;3.60;;
78838;SDS011;68405;47.190;27.558;2023-09-18T13:35:47;5.00;;;4.40;;
78838;SDS011;68405;47.190;27.558;2023-09-18T13:38:16;6.50;;;4.50;;
78838;SDS011;68405;47.190;27.558;2023-09-18T13:40:46;8.60;;;4.00;;
78838;SDS011;68405;47.190;27.558;2023-09-18T13:43:15;7.00;;;4.00;;
78838;SDS011;68405;47.190;27.558;2023-09-18T13:45:45;5.20;;;3.50;;
78838;SDS011;68405;47.190;27.558;2023-09-18T13:48:14;5.60;;;4.70;;
78838;SDS011;68405;47.190;27.558;2023-09-18T13:50:43;6.50;;;4.00;;
78838;SDS011;68405;47.190;27.558;2023-09-18T13:53:13;8.30;;;4.60;;
78838;SDS011;68405;47.190;27.558;2023-09-18T13:55:43;5.80;;;3.90;;
78838;SDS011;68405;47.190;27.558;2023-09-18T13:58:12;6.10;;;4.50;;
78838;SDS011;68405;47.190;27.558;2023-09-18T14:00:41;6.30;;;4.30;;
78838;SDS011;68405;47.190;27.558;2023-09-18T14:12:12;8.40;;;4.50;;
78838;SDS011;68405;47.190;27.558;2023-09-18T14:14:42;6.60;;;4.30;;
78838;SDS011;68405;47.190;27.558;2023-09-18T14:17:11;6.50;;;4.10;;
78838;SDS011;68405;47.190;27.558;2023-09-18T14:19:43;6.30;;;4.20;;
78838;SDS011;68405;47.190;27.558;2023-09-18T14:22:13;9.90;;;4.40;;
78838;SDS011;68405;47.190;27.558;2023-09-18T14:24:42;7.10;;;4.70;;
78838;SDS011;68405;47.190;27.558;2023-09-18T14:27:11;9.40;;;4.70;;
78838;SDS011;68405;47.190;27.558;2023-09-18T14:29:40;7.60;;;3.50;;
78838;SDS011;68405;47.190;27.558;2023-09-18T14:32:09;6.60;;;4.70;;
78838;SDS011;68405;47.190;27.558;2023-09-18T14:34:38;6.60;;;4.10;;
78838;SDS011;68405;47.190;27.558;2023-09-18T14:37:07;7.80;;;4.40;;
78838;SDS011;68405;47.190;27.558;2023-09-18T14:39:36;9.20;;;4.70;;
78838;SDS011;68405;47.190;27.558;2023-09-18T14:42:05;4.80;;;3.70;;
78838;SDS011;68405;47.190;27.558;2023-09-18T14:44:34;8.50;;;4.60;;
78838;SDS011;68405;47.190;27.558;2023-09-18T14:47:07;6.00;;;4.70;;
78838;SDS011;68405;47.190;27.558;2023-09-18T14:49:36;7.70;;;4.40;;
78838;SDS011;68405;47.190;27.558;2023-09-18T14:52:05;8.10;;;4.40;;
78838;SDS011;68405;47.190;27.558;2023-09-18T14:54:35;6.20;;;4.50;;
78838;SDS011;68405;47.190;27.558;2023-09-18T14:57:04;6.70;;;4.60;;
78838;SDS011;68405;47.190;27.558;2023-09-18T14:59:33;6.60;;;4.10;;
78838;SDS011;68405;47.190;27.558;2023-09-18T15:02:02;6.70;;;4.20;;
78838;SDS011;68405;47.190;27.558;2023-09-18T15:04:32;7.80;;;4.40;;
78838;SDS011;68405;47.190;27.558;2023-09-18T15:07:01;5.50;;;4.50;;
78838;SDS011;68405;47.190;27.558;2023-09-18T15:09:30;5.90;;;4.60;;
78838;SDS011;68405;47.190;27.558;2023-09-18T15:11:59;9.70;;;4.80;;
78838;SDS011;68405;47.190;27.558;2023-09-18T15:14:28;6.50;;;4.90;;
78838;SDS011;68405;47.190;27.558;2023-09-18T15:16:57;5.90;;;4.20;;
78838;SDS011;68405;47.190;27.558;2023-09-18T15:19:26;6.00;;;4.40;;
78838;SDS011;68405;47.190;27.558;2023-09-18T15:21:55;6.60;;;4.80;;
78838;SDS011;68405;47.190;27.558;2023-09-18T15:24:25;7.60;;;4.00;;
78838;SDS011;68405;47.190;27.558;2023-09-18T15:26:54;7.40;;;4.00;;
78838;SDS011;68405;47.190;27.558;2023-09-18T15:29:23;5.90;;;4.90;;
78838;SDS011;68405;47.190;27.558;2023-09-18T15:31:54;9.20;;;4.50;;
78838;SDS011;68405;47.190;27.558;2023-09-18T15:34:24;5.30;;;3.50;;
78838;SDS011;68405;47.190;27.558;2023-09-18T15:36:54;8.50;;;5.00;;
78838;SDS011;68405;47.190;27.558;2023-09-18T15:39:24;8.50;;;4.30;;
78838;SDS011;68405;47.190;27.558;2023-09-18T15:41:54;6.40;;;4.10;;
78838;SDS011;68405;47.190;27.558;2023-09-18T15:44:23;8.20;;;4.40;;
78838;SDS011;68405;47.190;27.558;2023-09-18T15:46:52;7.80;;;4.70;;
78838;SDS011;68405;47.190;27.558;2023-09-18T15:49:21;5.30;;;4.30;;
78838;SDS011;68405;47.190;27.558;2023-09-18T15:51:50;8.20;;;4.90;;
78838;SDS011;68405;47.190;27.558;2023-09-18T15:54:19;7.00;;;4.80;;
78838;SDS011;68405;47.190;27.558;2023-09-18T15:56:48;7.90;;;4.60;;
78838;SDS011;68405;47.190;27.558;2023-09-18T15:59:17;8.60;;;4.90;;